world map with KIX marked

KIX - Airport

This information may not be accurate or current and is not valid for navigation or flight planning. No warranty of fitness for any purpose is made or implied.

flag of Osakaflag of Japan

Donate via PayPal

Additional information is available on the NEW Great Circle Mapper

Location
City:  Osaka, Osaka, Japan
Name:Kansai International Airport
ICAO / IATA:RJBB / KIX

Details
Type:Airport (Aerodrome, Airfield)
Use:Public/Civil
Latitude:34°25'38"N (34.427306)
Longitude:135°14'39"E (135.244072)
Datum:WGS 1984
Elevation:26 ft (8 m)
Runways:1
Longest:11483 × 200 ft (3500 × 61 m)

Time
Timezone:UTC+9 (DST+11)
Local Time:

Weather
METAR:RJBB  041400Z AUTO 02010KT 9999 NSC 07/03 Q1022 NOSIG
TAF:RJBB  041106Z 0412/0518 02010KT 9999 FEW030

Related Locations
Nearby:
Farthest:SUEX: 12283 mi / 19768 km
Montevideo East [Montevideo East UIR], UY

Find:

   beyond  
but within

Other Information
Maps:
Links:
Sources:

  


 


Great Circle Mapper   Great Circle Mapper
Great Circle Mapper FAQ   Great Circle Mapper FAQ
  Karl's Home Page
KLSē   KLSē Home
   GC on Facebook
Airlines of the World   Airlines of the World
Donate via PayPal


Copyright © 2004-2019, Karl L. Swartz. All rights reserved.
All trademarks mentioned herein belong to their respective owners.

Please see credits for attribution and copyright information.

Karl Swartz <karl@kls2.com>
  Powered by FreeBSD
Valid HTML 4.01!
Labeled with ICRA
hCard Microformat
Geo Microformat